sensor_id;sensor_type;location;lat;lon;timestamp;pressure;altitude;pressure_sealevel;temperature;humidity
59419;BME280;45224;50.904;6.038;2023-02-02T00:01:30;100419.13;;;6.48;98.05
59419;BME280;45224;50.904;6.038;2023-02-02T00:03:01;100431.03;;;6.46;98.25
59419;BME280;45224;50.904;6.038;2023-02-02T00:04:33;100425.91;;;6.46;98.10
59419;BME280;45224;50.904;6.038;2023-02-02T00:06:04;100419.13;;;6.48;97.82
59419;BME280;45224;50.904;6.038;2023-02-02T00:07:35;100415.72;;;6.49;97.63
59419;BME280;45224;50.904;6.038;2023-02-02T00:09:05;100419.09;;;6.46;97.85
59419;BME280;45224;50.904;6.038;2023-02-02T00:10:36;100435.50;;;6.51;97.34
59419;BME280;45224;50.904;6.038;2023-02-02T00:12:08;100426.25;;;6.58;97.28
59419;BME280;45224;50.904;6.038;2023-02-02T00:13:39;100428.59;;;6.50;97.12
59419;BME280;45224;50.904;6.038;2023-02-02T00:15:10;100432.22;;;6.57;96.89
59419;BME280;45224;50.904;6.038;2023-02-02T00:16:46;100436.44;;;6.55;96.70
59419;BME280;45224;50.904;6.038;2023-02-02T00:18:16;100435.66;;;6.57;96.70
59419;BME280;45224;50.904;6.038;2023-02-02T00:19:47;100433.00;;;6.54;96.19
59419;BME280;45224;50.904;6.038;2023-02-02T00:21:18;100429.81;;;6.63;96.36
59419;BME280;45224;50.904;6.038;2023-02-02T00:22:48;100424.81;;;6.69;95.99
59419;BME280;45224;50.904;6.038;2023-02-02T00:24:19;100425.47;;;6.61;96.68
59419;BME280;45224;50.904;6.038;2023-02-02T00:25:49;100417.63;;;6.56;96.94
59419;BME280;45224;50.904;6.038;2023-02-02T00:27:20;100422.78;;;6.56;97.93
59419;BME280;45224;50.904;6.038;2023-02-02T00:28:50;100416.00;;;6.60;97.89
59419;BME280;45224;50.904;6.038;2023-02-02T00:30:21;100414.31;;;6.60;97.78
59419;BME280;45224;50.904;6.038;2023-02-02T00:31:52;100412.66;;;6.62;97.83
59419;BME280;45224;50.904;6.038;2023-02-02T00:33:22;100415.88;;;6.55;98.09
59419;BME280;45224;50.904;6.038;2023-02-02T00:34:53;100409.09;;;6.57;98.26
59419;BME280;45224;50.904;6.038;2023-02-02T00:36:23;100414.25;;;6.58;98.35
59419;BME280;45224;50.904;6.038;2023-02-02T00:37:54;100418.47;;;6.55;98.70
59419;BME280;45224;50.904;6.038;2023-02-02T00:39:24;100411.56;;;6.54;98.29
59419;BME280;45224;50.904;6.038;2023-02-02T00:40:55;100417.81;;;6.62;98.24
59419;BME280;45224;50.904;6.038;2023-02-02T00:42:25;100418.63;;;6.61;98.27
59419;BME280;45224;50.904;6.038;2023-02-02T00:43:56;100412.50;;;6.56;98.17
59419;BME280;45224;50.904;6.038;2023-02-02T00:45:45;100412.50;;;6.56;98.28
59419;BME280;45224;50.904;6.038;2023-02-02T00:47:16;100415.16;;;6.59;98.33
59419;BME280;45224;50.904;6.038;2023-02-02T00:48:47;100408.31;;;6.60;98.30
59419;BME280;45224;50.904;6.038;2023-02-02T00:50:19;100422.44;;;6.44;98.80
59419;BME280;45224;50.904;6.038;2023-02-02T00:51:49;100410.50;;;6.46;98.90
59419;BME280;45224;50.904;6.038;2023-02-02T00:53:20;100405.50;;;6.50;98.92
59419;BME280;45224;50.904;6.038;2023-02-02T00:54:50;100413.06;;;6.46;98.65
59419;BME280;45224;50.904;6.038;2023-02-02T00:56:21;100413.09;;;6.47;99.01
59419;BME280;45224;50.904;6.038;2023-02-02T00:57:52;100407.88;;;6.44;98.95
59419;BME280;45224;50.904;6.038;2023-02-02T00:59:24;100420.78;;;6.46;98.75
59419;BME280;45224;50.904;6.038;2023-02-02T01:00:55;100411.13;;;6.37;99.16
59419;BME280;45224;50.904;6.038;2023-02-02T01:02:26;100405.34;;;6.46;98.93
59419;BME280;45224;50.904;6.038;2023-02-02T01:03:56;100411.53;;;6.52;98.55
59419;BME280;45224;50.904;6.038;2023-02-02T01:05:28;100417.38;;;6.47;99.10
59419;BME280;45224;50.904;6.038;2023-02-02T01:06:59;100421.59;;;6.43;98.97
59419;BME280;45224;50.904;6.038;2023-02-02T01:08:30;100415.56;;;6.43;99.09
59419;BME280;45224;50.904;6.038;2023-02-02T01:10:00;100417.31;;;6.44;98.96
59419;BME280;45224;50.904;6.038;2023-02-02T01:11:31;100418.25;;;6.47;98.58
59419;BME280;45224;50.904;6.038;2023-02-02T01:13:01;100418.28;;;6.49;98.38
59419;BME280;45224;50.904;6.038;2023-02-02T01:14:31;100417.47;;;6.50;98.19
59419;BME280;45224;50.904;6.038;2023-02-02T01:16:03;100420.84;;;6.49;98.53
59419;BME280;45224;50.904;6.038;2023-02-02T01:17:34;100427.06;;;6.57;97.95
59419;BME280;45224;50.904;6.038;2023-02-02T01:19:04;100423.59;;;6.55;98.07
59419;BME280;45224;50.904;6.038;2023-02-02T01:20:35;100418.28;;;6.49;98.35
59419;BME280;45224;50.904;6.038;2023-02-02T01:22:05;100419.97;;;6.47;98.33
59419;BME280;45224;50.904;6.038;2023-02-02T01:23:37;100411.25;;;6.42;98.30
59419;BME280;45224;50.904;6.038;2023-02-02T01:25:08;100430.31;;;6.50;98.69
59419;BME280;45224;50.904;6.038;2023-02-02T01:26:39;100425.81;;;6.43;98.28
59419;BME280;45224;50.904;6.038;2023-02-02T01:28:09;100420.78;;;6.46;98.60
59419;BME280;45224;50.904;6.038;2023-02-02T01:29:39;100414.94;;;6.51;98.04
59419;BME280;45224;50.904;6.038;2023-02-02T01:31:15;100421.78;;;6.51;97.88
59419;BME280;45224;50.904;6.038;2023-02-02T01:32:46;100427.22;;;6.31;99.06
59419;BME280;45224;50.904;6.038;2023-02-02T01:34:17;100427.56;;;6.44;98.74
59419;BME280;45224;50.904;6.038;2023-02-02T01:35:52;100429.84;;;6.33;99.18
59419;BME280;45224;50.904;6.038;2023-02-02T01:37:22;100423.16;;;6.38;98.85
59419;BME280;45224;50.904;6.038;2023-02-02T01:38:53;100424.03;;;6.38;98.36
59419;BME280;45224;50.904;6.038;2023-02-02T01:40:23;100427.31;;;6.34;98.80
59419;BME280;45224;50.904;6.038;2023-02-02T01:41:54;100435.97;;;6.36;98.82
59419;BME280;45224;50.904;6.038;2023-02-02T01:43:49;100431.78;;;6.40;98.34
59419;BME280;45224;50.904;6.038;2023-02-02T01:45:27;100427.41;;;6.37;98.48
59419;BME280;45224;50.904;6.038;2023-02-02T01:46:58;100423.34;;;6.46;97.91
59419;BME280;45224;50.904;6.038;2023-02-02T01:48:31;100430.34;;;6.51;97.66
59419;BME280;45224;50.904;6.038;2023-02-02T01:50:03;100443.81;;;6.43;97.40
59419;BME280;45224;50.904;6.038;2023-02-02T01:51:49;100438.03;;;6.50;97.20
59419;BME280;45224;50.904;6.038;2023-02-02T01:53:21;100442.25;;;6.48;97.50
59419;BME280;45224;50.904;6.038;2023-02-02T01:54:56;100431.03;;;6.46;97.66
59419;BME280;45224;50.904;6.038;2023-02-02T01:56:38;100440.84;;;6.59;97.21
59419;BME280;45224;50.904;6.038;2023-02-02T01:58:14;100437.34;;;6.57;96.71
59419;BME280;45224;50.904;6.038;2023-02-02T01:59:48;100440.09;;;6.63;96.22
59419;BME280;45224;50.904;6.038;2023-02-02T02:01:19;100427.75;;;6.50;96.65
59419;BME280;45224;50.904;6.038;2023-02-02T02:02:51;100429.72;;;6.60;96.54
59419;BME280;45224;50.904;6.038;2023-02-02T02:04:25;100448.47;;;6.56;96.43
59419;BME280;45224;50.904;6.038;2023-02-02T02:06:00;100432.72;;;6.44;96.91
59419;BME280;45224;50.904;6.038;2023-02-02T02:07:32;100437.34;;;6.57;96.83
59419;BME280;45224;50.904;6.038;2023-02-02T02:09:04;100431.38;;;6.58;96.73
59419;BME280;45224;50.904;6.038;2023-02-02T02:10:35;100426.09;;;6.52;97.01
59419;BME280;45224;50.904;6.038;2023-02-02T02:12:10;100427.03;;;6.55;96.73
59419;BME280;45224;50.904;6.038;2023-02-02T02:13:45;100427.84;;;6.53;97.07
59419;BME280;45224;50.904;6.038;2023-02-02T02:15:40;100425.25;;;6.53;97.20
59419;BME280;45224;50.904;6.038;2023-02-02T02:17:45;100423.59;;;6.55;96.85
59419;BME280;45224;50.904;6.038;2023-02-02T02:21:49;100403.84;;;6.54;96.36
59419;BME280;45224;50.904;6.038;2023-02-02T02:32:56;100421.81;;;6.52;96.72
59419;BME280;45224;50.904;6.038;2023-02-02T02:34:18;100419.53;;;6.63;96.05
59419;BME280;45224;50.904;6.038;2023-02-02T02:36:04;100421.88;;;6.55;96.30
59419;BME280;45224;50.904;6.038;2023-02-02T02:38:00;100432.16;;;6.55;96.35
59419;BME280;45224;50.904;6.038;2023-02-02T02:39:43;100427.09;;;6.58;96.32
59419;BME280;45224;50.904;6.038;2023-02-02T02:41:20;100422.94;;;6.62;96.29
59419;BME280;45224;50.904;6.038;2023-02-02T02:42:58;100423.00;;;6.65;96.16
59419;BME280;45224;50.904;6.038;2023-02-02T02:44:32;100420.38;;;6.62;96.36
59419;BME280;45224;50.904;6.038;2023-02-02T02:46:03;100418.50;;;6.56;96.65
59419;BME280;45224;50.904;6.038;2023-02-02T02:47:35;100421.06;;;6.56;96.94
59419;BME280;45224;50.904;6.038;2023-02-02T02:49:09;100412.34;;;6.50;97.05
59419;BME280;45224;50.904;6.038;2023-02-02T02:50:41;100410.50;;;6.46;97.34
59419;BME280;45224;50.904;6.038;2023-02-02T02:52:12;100413.25;;;6.52;96.92
59419;BME280;45224;50.904;6.038;2023-02-02T02:53:42;100417.59;;;6.54;96.87
59419;BME280;45224;50.904;6.038;2023-02-02T02:55:13;100406.47;;;6.55;96.73
59419;BME280;45224;50.904;6.038;2023-02-02T03:00:46;100427.75;;;6.50;97.39
59419;BME280;45224;50.904;6.038;2023-02-02T03:02:24;100438.03;;;6.50;96.99
59419;BME280;45224;50.904;6.038;2023-02-02T03:04:18;100428.00;;;6.59;96.73
59419;BME280;45224;50.904;6.038;2023-02-02T03:07:35;100420.25;;;6.57;96.89
59419;BME280;45224;50.904;6.038;2023-02-02T03:09:18;100426.88;;;6.49;96.69
59419;BME280;45224;50.904;6.038;2023-02-02T03:10:51;100438.19;;;6.56;96.63
59419;BME280;45224;50.904;6.038;2023-02-02T03:12:22;100447.06;;;6.67;96.29
59419;BME280;45224;50.904;6.038;2023-02-02T03:13:53;100441.66;;;6.58;96.19
59419;BME280;45224;50.904;6.038;2023-02-02T03:15:24;100428.09;;;6.62;96.46
59419;BME280;45224;50.904;6.038;2023-02-02T03:16:55;100439.25;;;6.64;96.19
59419;BME280;45224;50.904;6.038;2023-02-02T03:18:29;100441.03;;;6.67;96.13
59419;BME280;45224;50.904;6.038;2023-02-02T03:20:00;100439.38;;;6.69;95.87
59419;BME280;45224;50.904;6.038;2023-02-02T03:21:31;100434.03;;;6.61;96.15
59419;BME280;45224;50.904;6.038;2023-02-02T03:23:02;100434.16;;;6.66;95.61
59419;BME280;45224;50.904;6.038;2023-02-02T03:24:32;100430.81;;;6.70;95.83
59419;BME280;45224;50.904;6.038;2023-02-02T03:26:03;100434.03;;;6.61;96.02
59419;BME280;45224;50.904;6.038;2023-02-02T03:27:35;100437.69;;;6.69;96.12
59419;BME280;45224;50.904;6.038;2023-02-02T03:29:06;100440.16;;;6.66;96.11
59419;BME280;45224;50.904;6.038;2023-02-02T03:30:39;100434.84;;;6.60;96.37
59419;BME280;45224;50.904;6.038;2023-02-02T03:32:10;100447.13;;;6.70;96.15
59419;BME280;45224;50.904;6.038;2023-02-02T03:33:41;100431.22;;;6.52;96.69
59419;BME280;45224;50.904;6.038;2023-02-02T03:35:13;100436.53;;;6.58;96.97
59419;BME280;45224;50.904;6.038;2023-02-02T03:36:43;100438.28;;;6.59;96.94
59419;BME280;45224;50.904;6.038;2023-02-02T03:38:14;100440.00;;;6.60;96.79
59419;BME280;45224;50.904;6.038;2023-02-02T03:39:44;100429.56;;;6.54;96.95
59419;BME280;45224;50.904;6.038;2023-02-02T03:41:15;100439.81;;;6.54;97.04
59419;BME280;45224;50.904;6.038;2023-02-02T03:42:45;100435.16;;;6.39;97.09
59419;BME280;45224;50.904;6.038;2023-02-02T03:44:16;100444.91;;;6.51;97.42
59419;BME280;45224;50.904;6.038;2023-02-02T03:45:46;100446.63;;;6.52;97.11
59419;BME280;45224;50.904;6.038;2023-02-02T03:47:16;100439.78;;;6.52;96.91
59419;BME280;45224;50.904;6.038;2023-02-02T03:48:47;100435.53;;;6.53;97.18
59419;BME280;45224;50.904;6.038;2023-02-02T03:50:17;100447.31;;;6.45;97.39
59419;BME280;45224;50.904;6.038;2023-02-02T03:51:48;100442.72;;;6.34;97.54
59419;BME280;45224;50.904;6.038;2023-02-02T03:53:18;100441.31;;;6.46;97.41
59419;BME280;45224;50.904;6.038;2023-02-02T03:54:49;100449.06;;;6.47;97.48
59419;BME280;45224;50.904;6.038;2023-02-02T03:56:20;100450.75;;;6.45;97.41
59419;BME280;45224;50.904;6.038;2023-02-02T03:57:50;100449.00;;;6.44;97.51
59419;BME280;45224;50.904;6.038;2023-02-02T03:59:21;100448.31;;;6.50;97.51
59419;BME280;45224;50.904;6.038;2023-02-02T04:00:52;100448.38;;;6.53;97.07
59419;BME280;45224;50.904;6.038;2023-02-02T04:02:24;100451.94;;;6.58;96.90
59419;BME280;45224;50.904;6.038;2023-02-02T04:03:56;100451.03;;;6.56;96.77
59419;BME280;45224;50.904;6.038;2023-02-02T04:05:27;100445.06;;;6.57;96.91
59419;BME280;45224;50.904;6.038;2023-02-02T04:06:57;100446.75;;;6.56;97.05
59419;BME280;45224;50.904;6.038;2023-02-02T04:08:28;100446.72;;;6.55;96.90
59419;BME280;45224;50.904;6.038;2023-02-02T04:09:59;100458.22;;;6.37;97.04
59419;BME280;45224;50.904;6.038;2023-02-02T04:11:30;100459.38;;;6.49;97.04
59419;BME280;45224;50.904;6.038;2023-02-02T04:13:00;100469.78;;;6.53;96.99
59419;BME280;45224;50.904;6.038;2023-02-02T04:14:31;100465.47;;;6.51;97.05
59419;BME280;45224;50.904;6.038;2023-02-02T04:16:02;100464.63;;;6.52;96.83
59419;BME280;45224;50.904;6.038;2023-02-02T04:17:32;100461.97;;;6.49;96.95
59419;BME280;45224;50.904;6.038;2023-02-02T04:19:04;100457.78;;;6.52;96.84
59419;BME280;45224;50.904;6.038;2023-02-02T04:20:34;100461.31;;;6.56;96.87
59419;BME280;45224;50.904;6.038;2023-02-02T04:22:05;100460.25;;;6.48;96.81
59419;BME280;45224;50.904;6.038;2023-02-02T04:23:36;100453.44;;;6.50;96.86
59419;BME280;45224;50.904;6.038;2023-02-02T04:25:07;100455.84;;;6.44;97.30
59419;BME280;45224;50.904;6.038;2023-02-02T04:26:37;100449.72;;;6.38;97.54
59419;BME280;45224;50.904;6.038;2023-02-02T04:28:08;100448.22;;;6.47;97.61
59419;BME280;45224;50.904;6.038;2023-02-02T04:29:38;100447.47;;;6.51;97.25
59419;BME280;45224;50.904;6.038;2023-02-02T04:31:08;100452.66;;;6.54;97.60
59419;BME280;45224;50.904;6.038;2023-02-02T04:32:39;100453.53;;;6.53;97.54
59419;BME280;45224;50.904;6.038;2023-02-02T04:34:09;100465.53;;;6.54;98.38
59419;BME280;45224;50.904;6.038;2023-02-02T04:35:41;100467.31;;;6.56;98.49
59419;BME280;45224;50.904;6.038;2023-02-02T04:37:12;100462.31;;;6.61;98.15
59419;BME280;45224;50.904;6.038;2023-02-02T04:38:42;100475.97;;;6.60;98.39
59419;BME280;45224;50.904;6.038;2023-02-02T04:40:13;100475.56;;;6.45;98.96
59419;BME280;45224;50.904;6.038;2023-02-02T04:41:43;100472.94;;;6.43;99.71
59419;BME280;45224;50.904;6.038;2023-02-02T04:43:14;100469.66;;;6.49;99.28
59419;BME280;45224;50.904;6.038;2023-02-02T04:44:44;100475.38;;;6.38;99.45
59419;BME280;45224;50.904;6.038;2023-02-02T04:46:15;100477.25;;;6.44;99.58
59419;BME280;45224;50.904;6.038;2023-02-02T04:47:45;100483.06;;;6.37;100.00
59419;BME280;45224;50.904;6.038;2023-02-02T04:49:16;100485.78;;;6.43;99.79
59419;BME280;45224;50.904;6.038;2023-02-02T04:50:46;100486.53;;;6.39;99.33
59419;BME280;45224;50.904;6.038;2023-02-02T04:52:17;100489.91;;;6.36;100.00
59419;BME280;45224;50.904;6.038;2023-02-02T04:53:47;100487.47;;;6.43;99.40
59419;BME280;45224;50.904;6.038;2023-02-02T04:55:18;100479.56;;;6.35;99.90
59419;BME280;45224;50.904;6.038;2023-02-02T04:56:48;100478.13;;;6.45;99.66
59419;BME280;45224;50.904;6.038;2023-02-02T04:58:19;100477.88;;;6.35;99.77
59419;BME280;45224;50.904;6.038;2023-02-02T04:59:49;100486.66;;;6.44;99.70
59419;BME280;45224;50.904;6.038;2023-02-02T05:01:20;100480.47;;;6.37;100.00
59419;BME280;45224;50.904;6.038;2023-02-02T05:02:50;100488.50;;;6.48;99.62
59419;BME280;45224;50.904;6.038;2023-02-02T05:04:20;100489.22;;;6.44;99.17
59419;BME280;45224;50.904;6.038;2023-02-02T05:06:00;100496.88;;;6.42;99.91
59419;BME280;45224;50.904;6.038;2023-02-02T05:07:30;100494.00;;;6.31;100.00
59419;BME280;45224;50.904;6.038;2023-02-02T05:09:01;100492.47;;;6.36;100.00
59419;BME280;45224;50.904;6.038;2023-02-02T05:10:31;100500.91;;;6.32;100.00
59419;BME280;45224;50.904;6.038;2023-02-02T05:12:02;100498.38;;;6.34;100.00
59419;BME280;45224;50.904;6.038;2023-02-02T05:13:33;100511.06;;;6.29;100.00
59419;BME280;45224;50.904;6.038;2023-02-02T05:15:04;100504.13;;;6.25;100.00
59419;BME280;45224;50.904;6.038;2023-02-02T05:16:35;100494.84;;;6.30;100.00
59419;BME280;45224;50.904;6.038;2023-02-02T05:18:05;100499.13;;;6.31;100.00
59419;BME280;45224;50.904;6.038;2023-02-02T05:19:36;100502.75;;;6.36;100.00
59419;BME280;45224;50.904;6.038;2023-02-02T05:21:06;100499.22;;;6.34;100.00
59419;BME280;45224;50.904;6.038;2023-02-02T05:22:37;100495.81;;;6.34;100.00
59419;BME280;45224;50.904;6.038;2023-02-02T05:24:07;100493.16;;;6.31;100.00
59419;BME280;45224;50.904;6.038;2023-02-02T05:25:38;100493.75;;;6.22;100.00
59419;BME280;45224;50.904;6.038;2023-02-02T05:27:08;100489.66;;;6.29;100.00
59419;BME280;45224;50.904;6.038;2023-02-02T05:28:39;100491.25;;;6.24;100.00
59419;BME280;45224;50.904;6.038;2023-02-02T05:30:12;100486.09;;;6.24;100.00
59419;BME280;45224;50.904;6.038;2023-02-02T05:31:43;100493.84;;;6.25;100.00
59419;BME280;45224;50.904;6.038;2023-02-02T05:33:13;100487.06;;;6.27;100.00
59419;BME280;45224;50.904;6.038;2023-02-02T05:34:44;100471.66;;;6.27;100.00
59419;BME280;45224;50.904;6.038;2023-02-02T05:36:15;100480.03;;;6.21;100.00
59419;BME280;45224;50.904;6.038;2023-02-02T05:37:48;100491.91;;;6.18;100.00
59419;BME280;45224;50.904;6.038;2023-02-02T05:39:19;100485.31;;;6.26;100.00
59419;BME280;45224;50.904;6.038;2023-02-02T05:40:49;100483.50;;;6.22;100.00
59419;BME280;45224;50.904;6.038;2023-02-02T05:42:20;100481.56;;;6.15;100.00
59419;BME280;45224;50.904;6.038;2023-02-02T05:43:50;100468.63;;;6.12;100.00
59419;BME280;45224;50.904;6.038;2023-02-02T05:45:21;100473.03;;;6.16;100.00
59419;BME280;45224;50.904;6.038;2023-02-02T05:46:51;100466.16;;;6.15;100.00
59419;BME280;45224;50.904;6.038;2023-02-02T05:48:22;100473.91;;;6.16;100.00
59419;BME280;45224;50.904;6.038;2023-02-02T05:49:52;100468.81;;;6.18;100.00
59419;BME280;45224;50.904;6.038;2023-02-02T05:51:27;100480.50;;;6.08;100.00
59419;BME280;45224;50.904;6.038;2023-02-02T05:52:59;100488.34;;;6.13;100.00
59419;BME280;45224;50.904;6.038;2023-02-02T05:54:29;100481.56;;;6.15;100.00
59419;BME280;45224;50.904;6.038;2023-02-02T05:56:00;100496.72;;;6.07;100.00
59419;BME280;45224;50.904;6.038;2023-02-02T05:57:30;100499.47;;;6.13;100.00
59419;BME280;45224;50.904;6.038;2023-02-02T05:59:01;100502.56;;;6.01;100.00
59419;BME280;45224;50.904;6.038;2023-02-02T06:00:34;100489.66;;;5.98;100.00
59419;BME280;45224;50.904;6.038;2023-02-02T06:02:04;100503.47;;;6.03;100.00
59419;BME280;45224;50.904;6.038;2023-02-02T06:03:35;100493.03;;;5.97;100.00
59419;BME280;45224;50.904;6.038;2023-02-02T06:05:06;100496.63;;;6.02;100.00
59419;BME280;45224;50.904;6.038;2023-02-02T06:06:36;100487.97;;;6.00;100.00
59419;BME280;45224;50.904;6.038;2023-02-02T06:08:08;100490.38;;;5.96;100.00
59419;BME280;45224;50.904;6.038;2023-02-02T06:09:38;100486.34;;;6.02;100.00
59419;BME280;45224;50.904;6.038;2023-02-02T06:11:14;100490.56;;;6.00;100.00
59419;BME280;45224;50.904;6.038;2023-02-02T06:12:45;100492.31;;;6.01;100.00
59419;BME280;45224;50.904;6.038;2023-02-02T06:14:15;100488.66;;;5.95;100.00
59419;BME280;45224;50.904;6.038;2023-02-02T06:15:46;100501.06;;;5.81;100.00
59419;BME280;45224;50.904;6.038;2023-02-02T06:17:16;100501.28;;;5.89;100.00
59419;BME280;45224;50.904;6.038;2023-02-02T06:18:47;100504.72;;;5.89;100.00
59419;BME280;45224;50.904;6.038;2023-02-02T06:20:17;100514.31;;;5.95;100.00
59419;BME280;45224;50.904;6.038;2023-02-02T06:21:48;100502.25;;;5.92;100.00
59419;BME280;45224;50.904;6.038;2023-02-02T06:23:18;100509.84;;;5.89;100.00
59419;BME280;45224;50.904;6.038;2023-02-02T06:24:49;100511.88;;;5.98;100.00
59419;BME280;45224;50.904;6.038;2023-02-02T06:26:22;100515.41;;;6.01;100.00
59419;BME280;45224;50.904;6.038;2023-02-02T06:27:57;100514.53;;;6.01;100.00
59419;BME280;45224;50.904;6.038;2023-02-02T06:29:28;100512.88;;;6.03;100.00
59419;BME280;45224;50.904;6.038;2023-02-02T06:31:08;100517.25;;;6.06;100.00
59419;BME280;45224;50.904;6.038;2023-02-02T06:32:40;100528.19;;;6.00;100.00
59419;BME280;45224;50.904;6.038;2023-02-02T06:34:11;100513.38;;;5.91;100.00
59419;BME280;45224;50.904;6.038;2023-02-02T06:35:44;100510.91;;;5.94;100.00
59419;BME280;45224;50.904;6.038;2023-02-02T06:37:14;100515.41;;;6.01;100.00
59419;BME280;45224;50.904;6.038;2023-02-02T06:38:52;100509.31;;;5.98;100.00
59419;BME280;45224;50.904;6.038;2023-02-02T06:40:23;100507.38;;;5.92;100.00
59419;BME280;45224;50.904;6.038;2023-02-02T06:41:53;100522.69;;;5.89;100.00
59419;BME280;45224;50.904;6.038;2023-02-02T06:43:24;100515.09;;;5.92;100.00
59419;BME280;45224;50.904;6.038;2023-02-02T06:44:54;100520.13;;;5.89;100.00
59419;BME280;45224;50.904;6.038;2023-02-02T06:46:25;100520.81;;;5.83;100.00
59419;BME280;45224;50.904;6.038;2023-02-02T06:47:59;100522.69;;;5.89;100.00
59419;BME280;45224;50.904;6.038;2023-02-02T06:49:32;100515.19;;;5.95;100.00
59419;BME280;45224;50.904;6.038;2023-02-02T06:51:03;100526.44;;;5.99;100.00
59419;BME280;45224;50.904;6.038;2023-02-02T06:52:34;100531.44;;;5.94;100.00
59419;BME280;45224;50.904;6.038;2023-02-02T06:54:05;100534.75;;;5.92;100.00
59419;BME280;45224;50.904;6.038;2023-02-02T06:55:35;100543.53;;;5.98;100.00
59419;BME280;45224;50.904;6.038;2023-02-02T06:57:06;100519.53;;;5.96;100.00
59419;BME280;45224;50.904;6.038;2023-02-02T06:58:38;100524.53;;;5.93;100.00
59419;BME280;45224;50.904;6.038;2023-02-02T07:00:09;100520.44;;;5.98;100.00
59419;BME280;45224;50.904;6.038;2023-02-02T07:01:40;100527.81;;;5.89;100.00
59419;BME280;45224;50.904;6.038;2023-02-02T07:03:10;100531.28;;;5.90;100.00
59419;BME280;45224;50.904;6.038;2023-02-02T07:04:41;100530.38;;;5.89;100.00
59419;BME280;45224;50.904;6.038;2023-02-02T07:06:15;100526.19;;;5.91;100.00
59419;BME280;45224;50.904;6.038;2023-02-02T07:07:47;100511.66;;;5.92;100.00
59419;BME280;45224;50.904;6.038;2023-02-02T07:09:17;100514.28;;;5.93;100.00
59419;BME280;45224;50.904;6.038;2023-02-02T07:10:48;100499.38;;;5.81;100.00
59419;BME280;45224;50.904;6.038;2023-02-02T07:12:18;100513.41;;;5.93;100.00
59419;BME280;45224;50.904;6.038;2023-02-02T07:13:48;100516.69;;;5.89;100.00
59419;BME280;45224;50.904;6.038;2023-02-02T07:15:19;100526.19;;;5.91;100.00
59419;BME280;45224;50.904;6.038;2023-02-02T07:16:49;100518.41;;;5.88;100.00
59419;BME280;45224;50.904;6.038;2023-02-02T07:18:20;100531.19;;;5.87;100.00
59419;BME280;45224;50.904;6.038;2023-02-02T07:19:51;100539.06;;;5.93;100.00
59419;BME280;45224;50.904;6.038;2023-02-02T07:21:23;100537.38;;;5.93;100.00
59419;BME280;45224;50.904;6.038;2023-02-02T07:22:54;100539.94;;;5.93;100.00
59419;BME280;45224;50.904;6.038;2023-02-02T07:24:25;100542.50;;;5.93;100.00
59419;BME280;45224;50.904;6.038;2023-02-02T07:26:23;100536.81;;;6.02;100.00
59419;BME280;45224;50.904;6.038;2023-02-02T07:27:53;100533.81;;;5.88;100.00
59419;BME280;45224;50.904;6.038;2023-02-02T07:29:24;100550.81;;;5.86;100.00
59419;BME280;45224;50.904;6.038;2023-02-02T07:30:54;100542.56;;;5.95;100.00
59419;BME280;45224;50.904;6.038;2023-02-02T07:32:25;100550.66;;;6.07;100.00
59419;BME280;45224;50.904;6.038;2023-02-02T07:33:55;100546.13;;;5.98;100.00
59419;BME280;45224;50.904;6.038;2023-02-02T07:35:26;100557.81;;;5.90;100.00
59419;BME280;45224;50.904;6.038;2023-02-02T07:36:57;100544.06;;;5.88;100.00
59419;BME280;45224;50.904;6.038;2023-02-02T07:38:27;100550.38;;;5.98;100.00
59419;BME280;45224;50.904;6.038;2023-02-02T07:39:58;100551.06;;;5.94;100.00
59419;BME280;45224;50.904;6.038;2023-02-02T07:41:28;100553.59;;;5.92;100.00
59419;BME280;45224;50.904;6.038;2023-02-02T07:42:59;100552.56;;;5.87;100.00
59419;BME280;45224;50.904;6.038;2023-02-02T07:44:31;100546.53;;;5.85;100.00
59419;BME280;45224;50.904;6.038;2023-02-02T07:46:03;100552.78;;;5.93;100.00
59419;BME280;45224;50.904;6.038;2023-02-02T07:47:35;100553.59;;;5.92;100.00
59419;BME280;45224;50.904;6.038;2023-02-02T07:49:06;100542.63;;;5.96;100.00
59419;BME280;45224;50.904;6.038;2023-02-02T07:50:36;100541.50;;;5.88;100.00
59419;BME280;45224;50.904;6.038;2023-02-02T07:52:07;100543.06;;;5.84;100.00
59419;BME280;45224;50.904;6.038;2023-02-02T07:53:37;100534.41;;;5.81;100.00
59419;BME280;45224;50.904;6.038;2023-02-02T07:55:08;100544.16;;;5.91;100.00
59419;BME280;45224;50.904;6.038;2023-02-02T07:56:41;100545.31;;;5.99;100.00
59419;BME280;45224;50.904;6.038;2023-02-02T07:58:11;100544.41;;;5.99;100.00
59419;BME280;45224;50.904;6.038;2023-02-02T07:59:42;100547.63;;;5.93;100.00
59419;BME280;45224;50.904;6.038;2023-02-02T08:01:14;100545.94;;;5.94;100.00
59419;BME280;45224;50.904;6.038;2023-02-02T08:02:47;100545.34;;;6.01;100.00
59419;BME280;45224;50.904;6.038;2023-02-02T08:04:18;100549.50;;;5.97;100.00
59419;BME280;45224;50.904;6.038;2023-02-02T08:05:48;100549.59;;;6.00;100.00
59419;BME280;45224;50.904;6.038;2023-02-02T08:07:20;100551.34;;;6.01;100.00
59419;BME280;45224;50.904;6.038;2023-02-02T08:08:54;100554.78;;;6.02;100.00
59419;BME280;45224;50.904;6.038;2023-02-02T08:10:24;100549.69;;;6.03;100.00
59419;BME280;45224;50.904;6.038;2023-02-02T08:11:55;100549.69;;;6.03;100.00
59419;BME280;45224;50.904;6.038;2023-02-02T08:13:30;100554.19;;;6.11;100.00
59419;BME280;45224;50.904;6.038;2023-02-02T08:15:01;100544.34;;;5.97;100.00
59419;BME280;45224;50.904;6.038;2023-02-02T08:16:32;100557.19;;;5.97;100.00
59419;BME280;45224;50.904;6.038;2023-02-02T08:18:02;100562.66;;;6.08;100.00
59419;BME280;45224;50.904;6.038;2023-02-02T08:19:33;100564.56;;;6.14;100.00
59419;BME280;45224;50.904;6.038;2023-02-02T08:21:05;100579.28;;;6.19;100.00
59419;BME280;45224;50.904;6.038;2023-02-02T08:22:37;100569.19;;;6.26;100.00